createdAt,value
2019-02-28T00:01:11.855Z,2.20
2019-02-28T00:04:07.444Z,2.20
2019-02-28T00:06:55.925Z,2.30
2019-02-28T00:09:49.820Z,2.03
2019-02-28T00:12:37.263Z,2.30
2019-02-28T00:15:31.710Z,2.10
2019-02-28T00:18:26.077Z,2.40
2019-02-28T00:21:27.471Z,2.40
2019-02-28T00:24:14.645Z,2.30
2019-02-28T00:27:20.996Z,1.93
2019-02-28T00:30:06.202Z,2.20
2019-02-28T00:33:01.055Z,2.00
2019-02-28T00:35:48.029Z,2.70
2019-02-28T00:38:42.340Z,2.43
2019-02-28T00:41:29.859Z,2.10
2019-02-28T00:44:23.928Z,1.80
2019-02-28T00:47:11.547Z,2.17
2019-02-28T00:50:08.622Z,2.20
2019-02-28T00:52:56.025Z,1.93
2019-02-28T00:55:49.322Z,2.40
2019-02-28T00:58:36.834Z,2.47
2019-02-28T01:01:30.744Z,2.50
2019-02-28T01:04:18.191Z,2.53
2019-02-28T01:07:13.261Z,2.40
2019-02-28T01:10:01.459Z,2.37
2019-02-28T01:12:57.121Z,2.43
2019-02-28T01:15:45.102Z,2.30
2019-02-28T01:18:40.249Z,2.47
2019-02-28T01:21:34.176Z,2.40
2019-02-28T01:24:28.543Z,2.30
2019-02-28T01:27:17.389Z,2.33
2019-02-28T01:30:18.803Z,2.30
2019-02-28T01:33:05.827Z,2.33
2019-02-28T01:35:59.522Z,2.40
2019-02-28T01:38:46.749Z,1.80
2019-02-28T01:41:42.285Z,2.23
2019-02-28T01:44:29.669Z,2.30
2019-02-28T01:47:26.278Z,2.60
2019-02-28T01:50:13.699Z,2.40
2019-02-28T01:53:07.306Z,2.70
2019-02-28T01:55:54.594Z,2.60
2019-02-28T01:58:50.358Z,2.40
2019-02-28T02:01:39.017Z,2.27
2019-02-28T02:04:33.109Z,3.03
2019-02-28T02:07:20.253Z,2.43
2019-02-28T02:10:21.667Z,2.40
2019-02-28T02:13:11.409Z,2.93
2019-02-28T02:16:04.633Z,2.43
2019-02-28T02:18:54.407Z,2.47
2019-02-28T02:21:55.309Z,2.80
2019-02-28T02:24:42.729Z,2.60
2019-02-28T02:27:39.367Z,2.50
2019-02-28T02:30:26.315Z,2.57
2019-02-28T02:33:27.167Z,3.00
2019-02-28T02:36:16.375Z,2.60
2019-02-28T02:39:16.401Z,2.80
2019-02-28T02:42:00.447Z,3.20
2019-02-28T02:44:54.888Z,3.37
2019-02-28T02:47:41.987Z,2.50
2019-02-28T02:50:36.178Z,2.70
2019-02-28T02:53:23.472Z,2.83
2019-02-28T02:59:06.866Z,2.80
2019-02-28T03:02:00.546Z,2.57
2019-02-28T03:04:47.956Z,3.63
2019-02-28T03:07:42.608Z,2.77
2019-02-28T03:10:31.512Z,3.73
2019-02-28T03:13:28.364Z,2.67
2019-02-28T03:16:15.908Z,2.80
2019-02-28T03:19:12.997Z,2.60
2019-02-28T03:22:07.281Z,2.67
2019-02-28T03:25:08.554Z,2.73
2019-02-28T03:27:56.812Z,2.57
2019-02-28T03:30:51.266Z,2.93
2019-02-28T03:33:48.418Z,2.40
2019-02-28T03:36:41.783Z,2.50
2019-02-28T03:39:28.811Z,2.80
2019-02-28T03:42:28.564Z,2.80
2019-02-28T03:45:12.055Z,2.90
2019-02-28T03:48:05.759Z,2.97
2019-02-28T03:50:56.675Z,3.00
2019-02-28T03:53:55.661Z,2.90
2019-02-28T03:56:40.355Z,2.47
2019-02-28T03:59:35.083Z,2.77
2019-02-28T04:02:22.592Z,2.83
2019-02-28T04:05:17.464Z,2.90
2019-02-28T04:08:04.604Z,2.73
2019-02-28T04:11:01.675Z,2.70
2019-02-28T04:13:52.468Z,2.53
2019-02-28T04:16:43.965Z,3.07
2019-02-28T04:19:31.274Z,3.13
2019-02-28T04:22:31.972Z,2.70
2019-02-28T04:25:26.339Z,2.97
2019-02-28T04:28:28.121Z,3.30
2019-02-28T04:31:20.180Z,3.17
2019-02-28T04:34:21.519Z,2.67
2019-02-28T04:37:09.758Z,2.90
2019-02-28T04:40:03.559Z,2.80
2019-02-28T04:42:50.951Z,2.90
2019-02-28T04:45:47.773Z,2.87
2019-02-28T04:48:36.135Z,2.70
2019-02-28T04:51:30.231Z,3.37
2019-02-28T04:54:17.739Z,2.93
2019-02-28T04:57:12.339Z,3.23
2019-02-28T04:59:59.335Z,2.87
2019-02-28T05:02:54.805Z,3.00
2019-02-28T05:05:46.628Z,2.67
2019-02-28T05:08:39.091Z,2.70
2019-02-28T05:11:27.353Z,2.80
2019-02-28T05:14:23.813Z,3.30
2019-02-28T05:17:10.527Z,3.20
2019-02-28T05:20:07.419Z,2.40
2019-02-28T05:23:02.689Z,2.90
2019-02-28T05:26:02.509Z,2.77
2019-02-28T05:28:49.516Z,2.87
2019-02-28T05:31:44.262Z,3.17
2019-02-28T05:34:40.909Z,2.90
2019-02-28T05:37:36.260Z,2.50
2019-02-28T05:40:23.491Z,3.20
2019-02-28T05:43:17.882Z,3.37
2019-02-28T05:46:08.181Z,2.87
2019-02-28T05:49:02.457Z,2.90
2019-02-28T05:51:49.296Z,2.90
2019-02-28T05:54:43.777Z,2.83
2019-02-28T05:57:30.941Z,2.70
2019-02-28T06:00:27.031Z,2.50
2019-02-28T06:03:14.281Z,2.90
2019-02-28T06:06:08.508Z,2.60
2019-02-28T06:08:55.951Z,2.70
2019-02-28T06:11:49.854Z,3.50
2019-02-28T06:14:36.829Z,3.27
2019-02-28T06:17:30.972Z,3.13
2019-02-28T06:20:18.466Z,2.70
2019-02-28T06:23:12.522Z,2.57
2019-02-28T06:26:06.663Z,2.90
2019-02-28T06:29:04.612Z,3.50
2019-02-28T06:31:49.642Z,3.07
2019-02-28T06:34:43.605Z,2.80
2019-02-28T06:37:39.217Z,2.90
2019-02-28T06:40:34.747Z,2.80
2019-02-28T06:43:23.840Z,2.97
2019-02-28T06:46:17.710Z,3.30
2019-02-28T06:49:07.140Z,3.23
2019-02-28T06:52:03.141Z,3.10
2019-02-28T06:54:50.612Z,2.97
2019-02-28T06:57:46.247Z,3.10
2019-02-28T07:00:33.664Z,3.30
2019-02-28T07:03:27.640Z,3.00
2019-02-28T07:06:15.078Z,2.80
2019-02-28T07:09:08.905Z,2.60
2019-02-28T07:11:58.930Z,2.90
2019-02-28T07:14:53.031Z,3.27
2019-02-28T07:17:42.630Z,2.87
2019-02-28T07:20:36.139Z,4.00
2019-02-28T07:23:23.565Z,3.17
2019-02-28T07:26:24.648Z,3.37
2019-02-28T07:29:19.918Z,3.43
2019-02-28T07:32:14.794Z,2.77
2019-02-28T07:35:02.227Z,3.60
2019-02-28T07:38:03.862Z,3.17
2019-02-28T07:40:51.346Z,3.00
2019-02-28T07:43:47.100Z,3.27
2019-02-28T07:46:38.768Z,2.80
2019-02-28T07:49:36.893Z,3.10
2019-02-28T07:52:24.090Z,2.97
2019-02-28T07:55:20.826Z,3.27
2019-02-28T07:58:08.516Z,3.30
2019-02-28T08:01:02.343Z,3.33
2019-02-28T08:03:49.507Z,3.20
2019-02-28T08:06:43.307Z,3.47
2019-02-28T08:09:30.669Z,3.30
2019-02-28T08:12:27.462Z,3.90
2019-02-28T08:15:20.956Z,3.40
2019-02-28T08:18:11.624Z,3.00
2019-02-28T08:21:01.390Z,2.97
2019-02-28T08:23:55.946Z,3.47
2019-02-28T08:26:54.656Z,3.30
2019-02-28T08:29:48.699Z,3.13
2019-02-28T08:32:35.987Z,3.53
2019-02-28T08:35:33.990Z,3.03
2019-02-28T08:38:18.326Z,3.60
2019-02-28T08:41:22.544Z,3.03
2019-02-28T08:44:08.760Z,3.50
2019-02-28T08:47:03.431Z,3.27
2019-02-28T08:49:50.764Z,3.70
2019-02-28T08:52:45.174Z,3.40
2019-02-28T08:55:32.345Z,3.30
2019-02-28T08:58:31.027Z,3.60
2019-02-28T09:01:18.137Z,3.97
2019-02-28T09:04:14.665Z,4.10
2019-02-28T09:07:01.897Z,3.57
2019-02-28T09:09:55.851Z,3.50
2019-02-28T09:12:45.899Z,3.80
2019-02-28T09:15:40.328Z,3.60
2019-02-28T09:18:27.784Z,3.53
2019-02-28T09:21:22.229Z,3.30
2019-02-28T09:24:12.738Z,3.70
2019-02-28T09:27:12.358Z,3.50
2019-02-28T09:29:59.785Z,3.40
2019-02-28T09:32:54.522Z,3.40
2019-02-28T09:35:46.330Z,3.67
2019-02-28T09:38:42.319Z,3.50
2019-02-28T09:41:28.080Z,3.50
2019-02-28T09:44:32.509Z,3.40
2019-02-28T09:47:20.086Z,3.33
2019-02-28T09:50:19.392Z,3.40
2019-02-28T09:53:06.926Z,3.70
2019-02-28T09:56:01.393Z,3.80
2019-02-28T09:58:49.553Z,4.10
2019-02-28T10:01:45.128Z,3.40
2019-02-28T10:04:32.675Z,3.97
2019-02-28T10:07:27.180Z,3.50
2019-02-28T10:10:20.773Z,5.17
2019-02-28T10:13:18.282Z,4.03
2019-02-28T10:16:03.367Z,4.00
2019-02-28T10:18:57.485Z,4.03
2019-02-28T10:21:44.515Z,3.90
2019-02-28T10:24:39.360Z,3.87
2019-02-28T10:27:33.638Z,4.13
2019-02-28T10:30:36.587Z,3.47
2019-02-28T10:33:23.617Z,3.43
2019-02-28T10:36:17.144Z,3.50
2019-02-28T10:39:05.884Z,4.40
2019-02-28T10:42:05.217Z,3.67
2019-02-28T10:44:56.893Z,3.40
2019-02-28T10:47:51.500Z,3.43
2019-02-28T10:50:38.998Z,3.27
2019-02-28T10:53:32.777Z,3.60
2019-02-28T10:56:19.828Z,3.60
2019-02-28T10:59:14.325Z,3.73
2019-02-28T11:02:03.517Z,4.40
2019-02-28T11:04:58.241Z,4.40
2019-02-28T11:07:46.220Z,4.20
2019-02-28T11:10:43.491Z,3.67
2019-02-28T11:13:31.983Z,4.00
2019-02-28T11:16:25.913Z,3.83
2019-02-28T11:19:18.628Z,4.30
2019-02-28T11:22:14.620Z,4.63
2019-02-28T11:25:02.108Z,4.27
2019-02-28T11:27:56.983Z,4.13
2019-02-28T11:30:52.001Z,3.97
2019-02-28T11:33:48.881Z,4.30
2019-02-28T11:36:36.068Z,4.50
2019-02-28T11:39:32.869Z,4.00
2019-02-28T11:42:19.247Z,4.20
2019-02-28T11:45:15.240Z,4.03
2019-02-28T11:48:12.777Z,4.10
2019-02-28T11:51:06.365Z,4.03
2019-02-28T11:53:56.421Z,4.57
2019-02-28T11:56:50.437Z,4.13
2019-02-28T11:59:37.765Z,4.00
2019-02-28T12:02:32.759Z,4.60
2019-02-28T12:05:19.807Z,3.70
2019-02-28T12:08:13.457Z,3.53
2019-02-28T12:11:01.839Z,3.90
2019-02-28T12:13:56.788Z,4.20
2019-02-28T12:16:43.904Z,3.63
2019-02-28T12:19:37.962Z,3.43
2019-02-28T12:22:27.011Z,3.23
2019-02-28T12:25:22.127Z,3.60
2019-02-28T12:28:09.289Z,3.50
2019-02-28T12:31:09.900Z,3.60
2019-02-28T12:33:57.706Z,3.50
2019-02-28T12:36:52.708Z,3.47
2019-02-28T12:39:40.280Z,2.90
2019-02-28T12:42:34.620Z,3.70
2019-02-28T12:45:24.432Z,3.07
2019-02-28T12:48:18.467Z,3.43
2019-02-28T12:51:14.049Z,3.63
2019-02-28T12:54:08.549Z,3.30
2019-02-28T12:56:57.679Z,3.23
2019-02-28T12:59:52.700Z,3.27
2019-02-28T13:02:44.430Z,4.07
2019-02-28T13:05:38.675Z,3.57
2019-02-28T13:08:25.854Z,3.10
2019-02-28T13:11:19.557Z,3.77
2019-02-28T13:14:07.080Z,4.07
2019-02-28T13:17:01.168Z,3.77
2019-02-28T13:19:48.514Z,3.90
2019-02-28T13:22:43.135Z,3.70
2019-02-28T13:25:33.317Z,4.10
2019-02-28T13:28:27.789Z,3.60
2019-02-28T13:31:25.555Z,4.13
2019-02-28T13:34:25.201Z,3.60
2019-02-28T13:37:13.429Z,5.20
2019-02-28T13:40:08.251Z,4.37
2019-02-28T13:42:55.940Z,4.13
2019-02-28T13:45:50.772Z,3.67
2019-02-28T13:48:38.794Z,3.60
2019-02-28T13:51:36.653Z,4.63
2019-02-28T13:54:28.137Z,3.53
2019-02-28T13:57:25.885Z,2.90
2019-02-28T14:00:18.448Z,2.83
2019-02-28T14:03:16.730Z,2.70
2019-02-28T14:06:03.132Z,2.90
2019-02-28T14:08:57.015Z,2.70
2019-02-28T14:11:45.078Z,2.70
2019-02-28T14:14:42.398Z,2.53
2019-02-28T14:17:29.169Z,2.57
2019-02-28T14:20:24.436Z,2.40
2019-02-28T14:23:11.817Z,2.40
2019-02-28T14:26:05.868Z,2.30
2019-02-28T14:28:53.267Z,2.30
2019-02-28T14:31:53.888Z,2.30
2019-02-28T14:34:41.450Z,2.40
2019-02-28T14:40:29.548Z,2.27
2019-02-28T14:43:23.348Z,2.27
2019-02-28T14:46:10.552Z,2.40
2019-02-28T14:49:04.116Z,2.10
2019-02-28T14:51:51.573Z,1.90
2019-02-28T14:54:45.444Z,1.80
2019-02-28T14:57:40.224Z,1.87
2019-02-28T15:00:42.080Z,1.63
2019-02-28T15:03:27.645Z,1.60
2019-02-28T15:06:22.443Z,1.60
2019-02-28T15:09:24.218Z,1.50
2019-02-28T15:12:23.349Z,1.60
2019-02-28T15:15:17.969Z,1.33
2019-02-28T15:18:14.619Z,1.27
2019-02-28T15:21:01.052Z,1.37
2019-02-28T15:23:54.897Z,1.33
2019-02-28T15:26:42.461Z,2.03
2019-02-28T15:29:37.012Z,1.53
2019-02-28T15:32:44.765Z,1.13
2019-02-28T15:35:39.369Z,1.20
2019-02-28T15:38:26.776Z,1.20
2019-02-28T15:41:23.196Z,1.40
2019-02-28T15:44:12.384Z,1.20
2019-02-28T15:47:06.212Z,0.93
2019-02-28T15:49:55.064Z,1.40
2019-02-28T15:52:48.821Z,1.30
2019-02-28T15:55:36.608Z,1.07
2019-02-28T15:58:41.441Z,1.07
2019-02-28T16:01:31.927Z,1.77
2019-02-28T16:04:26.310Z,1.10
2019-02-28T16:07:13.271Z,1.13
2019-02-28T16:10:07.911Z,2.40
2019-02-28T16:12:55.004Z,0.90
2019-02-28T16:15:50.223Z,1.20
2019-02-28T16:18:37.694Z,1.30
2019-02-28T16:21:32.157Z,0.80
2019-02-28T16:24:22.867Z,0.87
2019-02-28T16:27:16.634Z,1.20
2019-02-28T16:30:04.932Z,1.00
2019-02-28T16:33:09.086Z,1.10
2019-02-28T16:36:05.839Z,2.13
2019-02-28T16:39:00.527Z,1.37
2019-02-28T16:41:47.870Z,1.07
2019-02-28T16:44:41.772Z,0.90
2019-02-28T16:47:29.227Z,1.83
2019-02-28T16:50:22.923Z,1.10
2019-02-28T16:53:14.993Z,1.80
2019-02-28T16:56:06.370Z,1.10
2019-02-28T16:59:00.727Z,3.53
2019-02-28T17:01:55.751Z,2.00
2019-02-28T17:04:43.104Z,1.83
2019-02-28T17:07:36.999Z,1.63
2019-02-28T17:10:26.013Z,0.80
2019-02-28T17:13:23.037Z,1.30
2019-02-28T17:16:17.717Z,0.73
2019-02-28T17:19:12.149Z,1.13
2019-02-28T17:21:59.392Z,0.70
2019-02-28T17:24:53.983Z,0.90
2019-02-28T17:27:43.175Z,1.23
2019-02-28T17:30:53.420Z,0.80
2019-02-28T17:33:47.930Z,0.90
2019-02-28T17:36:49.784Z,1.77
2019-02-28T17:39:37.099Z,1.10
2019-02-28T17:42:31.778Z,1.10
2019-02-28T17:45:20.070Z,1.10
2019-02-28T17:48:18.500Z,0.90
2019-02-28T17:51:07.270Z,1.00
2019-02-28T17:54:20.795Z,0.67
2019-02-28T17:57:11.510Z,2.33
2019-02-28T18:00:25.489Z,0.90
2019-02-28T18:03:30.652Z,1.87
2019-02-28T18:06:30.983Z,0.93
2019-02-28T18:09:19.895Z,1.63
2019-02-28T18:12:15.601Z,1.80
2019-02-28T18:15:21.357Z,1.40
2019-02-28T18:18:25.277Z,1.97
2019-02-28T18:21:23.179Z,1.23
2019-02-28T18:24:37.984Z,1.33
2019-02-28T18:27:29.534Z,1.33
2019-02-28T18:30:42.720Z,2.40
2019-02-28T18:33:31.559Z,2.53
2019-02-28T18:36:33.530Z,1.03
2019-02-28T18:39:27.523Z,2.23
2019-02-28T18:42:21.217Z,1.77
2019-02-28T18:45:09.145Z,1.57
2019-02-28T18:48:11.218Z,1.60
2019-02-28T18:50:57.854Z,1.67
2019-02-28T18:53:51.433Z,1.33
2019-02-28T18:56:38.567Z,1.23
2019-02-28T18:59:32.606Z,2.07
2019-02-28T19:02:28.629Z,1.47
2019-02-28T19:05:23.086Z,1.80
2019-02-28T19:08:10.284Z,1.30
2019-02-28T19:11:04.689Z,1.50
2019-02-28T19:13:52.132Z,1.53
2019-02-28T19:16:46.282Z,1.33
2019-02-28T19:19:33.466Z,2.03
2019-02-28T19:22:26.934Z,1.33
2019-02-28T19:25:14.263Z,2.93
2019-02-28T19:28:08.281Z,1.63
2019-02-28T19:30:56.966Z,1.77
2019-02-28T19:33:51.632Z,1.47
2019-02-28T19:36:39.045Z,3.83
2019-02-28T19:39:41.290Z,2.07
2019-02-28T19:42:48.130Z,1.50
2019-02-28T19:45:50.250Z,2.03
2019-02-28T19:48:44.175Z,2.23
2019-02-28T19:51:40.254Z,2.13
2019-02-28T19:54:27.010Z,2.27
2019-02-28T19:57:21.086Z,1.27
2019-02-28T20:00:09.654Z,3.13
2019-02-28T20:03:10.825Z,1.43
2019-02-28T20:06:00.282Z,1.40
2019-02-28T20:08:54.003Z,1.53
2019-02-28T20:11:41.139Z,1.63
2019-02-28T20:14:35.033Z,2.87
2019-02-28T20:17:22.413Z,1.77
2019-02-28T20:20:21.303Z,1.30
2019-02-28T20:23:08.267Z,1.67
2019-02-28T20:26:02.813Z,3.17
2019-02-28T20:28:49.986Z,1.87
2019-02-28T20:31:44.038Z,1.93
2019-02-28T20:34:31.010Z,1.80
2019-02-28T20:37:25.257Z,1.47
2019-02-28T20:40:16.633Z,1.40
2019-02-28T20:43:17.893Z,3.00
2019-02-28T20:46:05.110Z,1.93
2019-02-28T20:49:06.925Z,1.40
2019-02-28T20:51:55.412Z,1.80
2019-02-28T20:55:05.932Z,1.90
2019-02-28T20:57:59.968Z,1.60
2019-02-28T21:00:56.834Z,1.60
2019-02-28T21:03:50.874Z,1.70
2019-02-28T21:06:45.265Z,1.87
2019-02-28T21:09:32.889Z,2.40
2019-02-28T21:12:27.034Z,1.50
2019-02-28T21:15:14.639Z,2.30
2019-02-28T21:18:09.341Z,1.87
2019-02-28T21:20:56.808Z,1.80
2019-02-28T21:23:50.189Z,1.47
2019-02-28T21:26:37.084Z,3.33
2019-02-28T21:29:30.839Z,1.90
2019-02-28T21:32:18.147Z,1.70
2019-02-28T21:35:12.627Z,3.13
2019-02-28T21:38:00.011Z,1.43
2019-02-28T21:40:55.635Z,1.83
2019-02-28T21:43:42.770Z,1.70
2019-02-28T21:46:36.969Z,1.73
2019-02-28T21:49:31.069Z,2.03
2019-02-28T21:52:25.160Z,3.63
2019-02-28T21:55:14.998Z,2.40
2019-02-28T21:58:09.418Z,1.80
2019-02-28T22:00:56.404Z,2.80
2019-02-28T22:03:50.745Z,1.47
2019-02-28T22:06:44.790Z,2.40
2019-02-28T22:09:40.362Z,2.30
2019-02-28T22:12:27.716Z,1.63
2019-02-28T22:15:25.380Z,2.17
2019-02-28T22:18:12.664Z,2.83
2019-02-28T22:21:07.915Z,1.07
2019-02-28T22:23:55.104Z,1.30
2019-02-28T22:26:49.454Z,1.50
2019-02-28T22:29:36.852Z,1.73
2019-02-28T22:32:31.841Z,2.23
2019-02-28T22:35:20.335Z,1.50
2019-02-28T22:38:14.236Z,1.10
2019-02-28T22:41:01.430Z,1.67
2019-02-28T22:43:56.423Z,1.00
2019-02-28T22:46:43.402Z,1.20
2019-02-28T22:49:43.880Z,1.13
2019-02-28T22:52:38.847Z,1.50
2019-02-28T22:55:32.914Z,1.20
2019-02-28T22:58:20.169Z,1.43
2019-02-28T23:01:20.044Z,1.77
2019-02-28T23:04:07.419Z,1.63
2019-02-28T23:07:01.614Z,1.10
2019-02-28T23:09:56.261Z,1.00
2019-02-28T23:12:50.631Z,1.20
2019-02-28T23:15:37.887Z,1.43
2019-02-28T23:18:32.066Z,0.73
2019-02-28T23:21:19.313Z,1.67
2019-02-28T23:24:13.540Z,1.20
2019-02-28T23:27:11.627Z,0.90
2019-02-28T23:30:12.671Z,1.20
2019-02-28T23:33:00.961Z,0.93
2019-02-28T23:35:54.442Z,1.10
2019-02-28T23:38:41.711Z,1.40
2019-02-28T23:41:35.792Z,1.27
2019-02-28T23:44:22.938Z,1.30
2019-02-28T23:47:17.495Z,1.27
2019-02-28T23:50:12.978Z,2.03
2019-02-28T23:53:17.487Z,1.40
2019-02-28T23:56:04.648Z,1.50
2019-02-28T23:58:58.756Z,1.10
